Cloud 9 — 2BRA3 — position and weather

sailwx.info

Track history (hours):
 
Tides and Currents Weather Stations Pressure Air Temp Water Temp Dewpoint Dewpoint Depression Visibility Wind Speed Wind Dir Waves Ship Positions

Cloud 9

Last reported at 2015-Apr-24 18:15 UTC. Time now 2015-May-03 20:55 UTC.
Position N 43°49' E 007°47'.
Warning: this ship's position is 9 days out of date.

Length 60 m; draft 3.5 m.

Type: Other ship. MMSI: 235068579.

Date/timePositionNaut miles runAvg speedWind from/ knotsBaromVisibWave heightAir tempDewpointWater temp
2015-Apr-24 18:15N 43°49' E 007°47'0 0.0
2015-Apr-24 17:33N 43°49' E 007°47'  
2015-Apr-22 06:33N 43°49' E 007°47'0 0.0
2015-Apr-21 22:15N 43°49' E 007°47'0 0.0
2015-Apr-21 21:27N 43°49' E 007°47'0 0.0
2015-Apr-21 20:27N 43°49' E 007°47'0 0.0
2015-Apr-21 19:33N 43°49' E 007°47'0 0.0
2015-Apr-21 18:33N 43°49' E 007°47'0 0.0
2015-Apr-21 15:12N 43°49' E 007°47'0 0.0
2015-Apr-21 10:21N 43°49' E 007°47'0 0.0
2015-Apr-21 09:18N 43°49' E 007°47'0 0.0
2015-Apr-21 08:18N 43°49' E 007°47'0 0.0
2015-Apr-21 03:30N 43°49' E 007°47'0 0.0
2015-Apr-20 19:24N 43°49' E 007°47'0 0.0
2015-Apr-20 10:05N 43°49' E 007°47'16 0.3
2015-Apr-18 08:06N 43°44' E 007°26'0 0.0
2015-Apr-18 05:24N 43°44' E 007°26'0 0.0
2015-Apr-18 04:30N 43°44' E 007°26'0 0.0
2015-Apr-18 03:30N 43°44' E 007°26'0 0.0
2015-Apr-17 22:30N 43°44' E 007°26'0 0.0
2015-Apr-17 21:18N 43°44' E 007°26'0 0.0
2015-Apr-17 20:12N 43°44' E 007°26'0 0.0
2015-Apr-17 19:30N 43°44' E 007°26'0 0.0
2015-Apr-17 18:30N 43°44' E 007°26'0 0.0
2015-Apr-17 11:18N 43°44' E 007°26'0 0.0
2015-Apr-17 01:06N 43°44' E 007°26'0 0.0
2015-Apr-17 00:24N 43°44' E 007°26'0 0.0
2015-Apr-16 23:24N 43°44' E 007°26'0 0.0
2015-Apr-16 21:06N 43°44' E 007°26'0 0.0
2015-Apr-16 16:27N 43°44' E 007°26'7 7.5
2015-Apr-16 15:33N 43°41' E 007°18'1 0.4
2015-Apr-16 13:25N 43°42' E 007°17'0 0.0
2015-Apr-16 12:31N 43°42' E 007°17'0 0.0
2015-Apr-16 11:07N 43°42' E 007°17'0 0.0
2015-Apr-15 16:07N 43°42' E 007°17'0 0.0
2015-Apr-15 14:13N 43°42' E 007°17'0 0.0
2015-Apr-15 13:07N 43°42' E 007°17'0 0.0
2015-Apr-15 12:31N 43°42' E 007°17'0 0.0
2015-Apr-15 11:31N 43°42' E 007°17'0 0.0
2015-Apr-15 10:31N 43°42' E 007°17'0 0.0
2015-Apr-15 08:31N 43°42' E 007°17'0 0.0
2015-Apr-15 07:33N 43°42' E 007°17'34 2.8
2015-Apr-14 19:18N 43°53' E 008°01'0 0.0
2015-Apr-14 18:30N 43°53' E 008°01'  
Track history (hours):
 
Tides and Currents Weather Stations Pressure Air Temp Water Temp Dewpoint Dewpoint Depression Visibility Wind Speed Wind Dir Waves Ship Positions

Cloud 9

Last reported at 2015-Apr-24 18:15 UTC. Time now 2015-May-03 20:55 UTC.
Position N 43°49' E 007°47'.
Warning: this ship's position is 9 days out of date.

Length 60 m; draft 3.5 m.

Type: Other ship. MMSI: 235068579.

Date/timePositionNaut miles runAvg speedWind from/ knotsBaromVisibWave heightAir tempDewpointWater temp
2015-Apr-24 18:15N 43°49' E 007°47'0 0.0
2015-Apr-24 17:33N 43°49' E 007°47'  
2015-Apr-22 06:33N 43°49' E 007°47'0 0.0
2015-Apr-21 22:15N 43°49' E 007°47'0 0.0
2015-Apr-21 21:27N 43°49' E 007°47'0 0.0
2015-Apr-21 20:27N 43°49' E 007°47'0 0.0
2015-Apr-21 19:33N 43°49' E 007°47'0 0.0
2015-Apr-21 18:33N 43°49' E 007°47'0 0.0
2015-Apr-21 15:12N 43°49' E 007°47'0 0.0
2015-Apr-21 10:21N 43°49' E 007°47'0 0.0
2015-Apr-21 09:18N 43°49' E 007°47'0 0.0
2015-Apr-21 08:18N 43°49' E 007°47'0 0.0
2015-Apr-21 03:30N 43°49' E 007°47'0 0.0
2015-Apr-20 19:24N 43°49' E 007°47'0 0.0
2015-Apr-20 10:05N 43°49' E 007°47'16 0.3
2015-Apr-18 08:06N 43°44' E 007°26'0 0.0
2015-Apr-18 05:24N 43°44' E 007°26'0 0.0
2015-Apr-18 04:30N 43°44' E 007°26'0 0.0
2015-Apr-18 03:30N 43°44' E 007°26'0 0.0
2015-Apr-17 22:30N 43°44' E 007°26'0 0.0
2015-Apr-17 21:18N 43°44' E 007°26'0 0.0
2015-Apr-17 20:12N 43°44' E 007°26'0 0.0
2015-Apr-17 19:30N 43°44' E 007°26'0 0.0
2015-Apr-17 18:30N 43°44' E 007°26'0 0.0
2015-Apr-17 11:18N 43°44' E 007°26'0 0.0
2015-Apr-17 01:06N 43°44' E 007°26'0 0.0
2015-Apr-17 00:24N 43°44' E 007°26'0 0.0
2015-Apr-16 23:24N 43°44' E 007°26'0 0.0
2015-Apr-16 21:06N 43°44' E 007°26'0 0.0
2015-Apr-16 16:27N 43°44' E 007°26'7 7.5
2015-Apr-16 15:33N 43°41' E 007°18'1 0.4
2015-Apr-16 13:25N 43°42' E 007°17'0 0.0
2015-Apr-16 12:31N 43°42' E 007°17'0 0.0
2015-Apr-16 11:07N 43°42' E 007°17'0 0.0
2015-Apr-15 16:07N 43°42' E 007°17'0 0.0
2015-Apr-15 14:13N 43°42' E 007°17'0 0.0
2015-Apr-15 13:07N 43°42' E 007°17'0 0.0
2015-Apr-15 12:31N 43°42' E 007°17'0 0.0
2015-Apr-15 11:31N 43°42' E 007°17'0 0.0
2015-Apr-15 10:31N 43°42' E 007°17'0 0.0
2015-Apr-15 08:31N 43°42' E 007°17'0 0.0
2015-Apr-15 07:33N 43°42' E 007°17'34 2.8
2015-Apr-14 19:18N 43°53' E 008°01'0 0.0
2015-Apr-14 18:30N 43°53' E 008°01'  

Dump ship's entire track history